Time;durP1;ratioP1;P1;durP2;ratioP2;P2;SDS_P1;SDS_P2;PMS_P1;PMS_P2;Temp;Humidity;BMP_temperature;BMP_pressure;BME280_temperature;BME280_humidity;BME280_pressure;Samples;Min_cycle;Max_cycle;Signal;HPM_P1;HPM_P2
2021/06/02 00:00:41;;;;;;;8.45;3.00;;;;;;;11.54;47.77;99867.78;5089022;28;20036;-72
2021/06/02 00:03:09;;;;;;;5.00;2.60;;;;;;;11.54;47.95;99867.78;5055361;28;20062;-73
2021/06/02 00:05:34;;;;;;;7.60;2.85;;;;;;;11.54;48.13;99871.28;5072148;28;20055;-73
2021/06/02 00:08:01;;;;;;;10.07;2.78;;;;;;;11.51;48.01;99868.94;5055132;28;20047;-72
2021/06/02 00:10:27;;;;;;;8.18;2.97;;;;;;;11.52;47.94;99870.59;5072333;28;20052;-72
2021/06/02 00:12:53;;;;;;;10.07;3.00;;;;;;;11.47;48.04;99872.88;5055774;28;20062;-72
2021/06/02 00:15:20;;;;;;;7.07;3.00;;;;;;;11.43;48.26;99868.03;5055726;28;20518;-72
2021/06/02 00:17:51;;;;;;;8.32;2.80;;;;;;;11.45;48.19;99874.03;5055564;28;20055;-73
2021/06/02 00:20:17;;;;;;;6.18;2.90;;;;;;;11.41;48.38;99870.84;5072082;28;20044;-72
2021/06/02 00:22:44;;;;;;;12.23;2.85;;;;;;;11.40;48.53;99871.84;5055376;28;20050;-72
2021/06/02 00:25:10;;;;;;;4.13;2.60;;;;;;;11.38;48.66;99875.66;5055568;28;20488;-73
2021/06/02 00:27:39;;;;;;;8.35;2.80;;;;;;;11.33;48.72;99867.34;5055240;28;20051;-72
2021/06/02 00:30:06;;;;;;;15.02;3.60;;;;;;;11.33;49.04;99873.47;5071668;28;20134;-72
2021/06/02 00:32:33;;;;;;;5.70;3.17;;;;;;;11.32;48.96;99881.59;5072091;28;20040;-72
2021/06/02 00:35:02;;;;;;;13.75;3.95;;;;;;;11.28;49.21;99874.94;5055250;28;20048;-72
2021/06/02 00:37:29;;;;;;;18.75;4.05;;;;;;;11.26;49.40;99882.22;5055295;28;20078;-72
2021/06/02 00:39:56;;;;;;;10.02;3.42;;;;;;;11.19;49.46;99873.22;5088292;28;20048;-73
2021/06/02 00:42:24;;;;;;;6.90;3.17;;;;;;;11.07;49.47;99859.34;5055167;28;20071;-73
2021/06/02 00:44:50;;;;;;;10.60;3.25;;;;;;;11.18;49.51;99877.69;5071529;28;20044;-73
2021/06/02 00:47:18;;;;;;;6.32;2.70;;;;;;;11.15;49.56;99874.50;5055140;28;20052;-73
2021/06/02 00:49:45;;;;;;;7.32;2.97;;;;;;;11.12;49.88;99875.66;5055899;28;20048;-73
2021/06/02 00:52:12;;;;;;;8.40;2.67;;;;;;;11.13;49.98;99884.47;5055709;28;20154;-72
2021/06/02 00:54:38;;;;;;;9.63;2.50;;;;;;;11.11;50.02;99889.09;5072703;28;20547;-72
2021/06/02 00:57:04;;;;;;;9.88;2.63;;;;;;;11.07;50.24;99877.94;5047223;28;20071;-72
2021/06/02 00:59:47;;;;;;;7.65;2.33;;;;;;;11.08;50.28;99873.47;5072138;28;20086;-73
2021/06/02 01:02:15;;;;;;;4.97;2.22;;;;;;;11.05;50.19;99876.44;5089113;28;20059;-73
2021/06/02 01:04:42;;;;;;;8.45;2.20;;;;;;;11.06;50.50;99878.09;5072572;28;20496;-73
2021/06/02 01:07:12;;;;;;;7.93;2.55;;;;;;;11.03;50.61;99870.44;5089007;28;20096;-72
2021/06/02 01:09:47;;;;;;;9.57;2.60;;;;;;;10.98;50.67;99862.94;5089100;28;20644;-73
2021/06/02 01:12:18;;;;;;;8.85;2.55;;;;;;;11.01;50.65;99873.25;5072594;28;20492;-73
2021/06/02 01:14:45;;;;;;;6.90;2.53;;;;;;;11.03;50.57;99875.75;5055775;28;20511;-73
2021/06/02 01:17:30;;;;;;;6.30;2.42;;;;;;;10.99;50.82;99869.09;5072364;28;20040;-72
2021/06/02 01:19:59;;;;;;;8.25;2.50;;;;;;;10.97;50.98;99863.94;5058377;28;20040;-73
2021/06/02 01:22:27;;;;;;;7.03;2.42;;;;;;;11.01;50.96;99867.94;5075674;28;20047;-72
2021/06/02 01:24:53;;;;;;;5.20;2.42;;;;;;;11.04;50.91;99874.78;5092476;28;20411;-72
2021/06/02 01:27:19;;;;;;;5.32;2.60;;;;;;;11.04;51.07;99872.94;5075782;28;20039;-71
2021/06/02 01:29:48;;;;;;;9.38;2.65;;;;;;;11.02;51.19;99874.09;5058920;28;20067;-72
2021/06/02 01:32:45;;;;;;;6.20;2.20;;;;;;;11.02;51.36;99876.75;5075866;28;20487;-72
2021/06/02 01:35:42;;;;;;;6.75;2.88;;;;;;;10.99;51.51;99871.75;5075582;28;20055;-72
2021/06/02 01:38:32;;;;;;;8.10;2.88;;;;;;;10.98;51.97;99878.06;5075393;28;20188;-72
2021/06/02 01:41:16;;;;;;;10.75;2.78;;;;;;;10.96;51.73;99875.53;5075201;28;20052;-72
2021/06/02 01:44:27;;;;;;;4.50;2.47;;;;;;;10.93;51.89;99875.84;5075712;28;20108;-72
2021/06/02 01:46:59;;;;;;;6.35;2.45;;;;;;;10.94;51.96;99882.00;5092202;28;20047;-72
2021/06/02 01:49:50;;;;;;;5.63;3.08;;;;;;;10.82;52.19;99859.31;5075297;28;20071;-73
2021/06/02 01:52:35;;;;;;;8.40;2.53;;;;;;;10.96;52.24;99893.31;5075228;28;20059;-73
2021/06/02 01:55:20;;;;;;;6.43;2.25;;;;;;;10.95;52.29;99886.31;5074849;28;20051;-72
2021/06/02 01:58:09;;;;;;;4.93;2.65;;;;;;;10.98;52.17;99888.69;5091983;28;20079;-72
2021/06/02 02:00:44;;;;;;;12.05;2.63;;;;;;;10.99;52.20;99885.03;5074116;28;20515;-72
2021/06/02 02:03:34;;;;;;;10.30;2.70;;;;;;;10.98;52.33;99876.22;5074641;28;20431;-72
2021/06/02 02:06:03;;;;;;;8.17;2.77;;;;;;;10.98;52.16;99878.88;5088152;28;20043;-73
2021/06/02 02:08:59;;;;;;;7.78;2.63;;;;;;;10.94;52.47;99872.22;5070419;28;20283;-74
2021/06/02 02:11:30;;;;;;;8.68;2.75;;;;;;;11.05;52.44;99887.06;5058108;28;20470;-73
2021/06/02 02:14:27;;;;;;;6.50;2.92;;;;;;;11.06;52.44;99886.06;5057830;28;20127;-73
2021/06/02 02:17:30;;;;;;;4.97;2.70;;;;;;;11.08;52.38;99889.41;5091363;28;20043;-73
2021/06/02 02:20:18;;;;;;;4.30;2.63;;;;;;;11.11;52.46;99881.13;5074366;28;20130;-73
2021/06/02 02:23:22;;;;;;;5.40;2.70;;;;;;;11.05;52.64;99869.31;5058029;28;20043;-73
2021/06/02 02:26:20;;;;;;;7.68;2.75;;;;;;;11.16;52.52;99879.66;5070514;28;20040;-72
2021/06/02 02:29:02;;;;;;;9.27;2.78;;;;;;;11.18;52.50;99877.69;5074554;28;20040;-73
2021/06/02 02:31:47;;;;;;;4.93;2.75;;;;;;;11.23;52.36;99877.22;5057178;28;20056;-73
2021/06/02 02:34:21;;;;;;;6.72;2.58;;;;;;;11.26;52.32;99882.22;5073933;28;20040;-73
2021/06/02 02:36:52;;;;;;;6.40;2.80;;;;;;;11.26;52.85;99883.06;5072607;28;20059;-73
2021/06/02 02:39:41;;;;;;;8.32;2.78;;;;;;;11.30;52.71;99886.25;5089649;28;20050;-73
2021/06/02 02:42:24;;;;;;;4.43;2.70;;;;;;;11.36;52.69;99896.28;5071803;28;20665;-73
2021/06/02 02:45:15;;;;;;;5.03;2.78;;;;;;;11.41;52.58;99891.28;5055679;28;20488;-72
2021/06/02 02:48:03;;;;;;;7.60;2.55;;;;;;;11.47;52.41;99896.00;5072286;28;20101;-72
2021/06/02 02:50:36;;;;;;;5.93;2.70;;;;;;;11.41;52.13;99870.00;5073145;28;20124;-73
2021/06/02 02:53:06;;;;;;;8.50;2.88;;;;;;;11.57;51.78;99888.72;5073883;28;20044;-73
2021/06/02 02:55:35;;;;;;;6.07;2.17;;;;;;;11.63;51.78;99896.09;5057073;28;20055;-72
2021/06/02 02:58:21;;;;;;;4.78;2.58;;;;;;;11.69;51.71;99895.47;5057069;28;20083;-72
2021/06/02 03:00:57;;;;;;;10.45;2.72;;;;;;;11.71;51.38;99880.19;5073838;28;20052;-73
2021/06/02 03:03:30;;;;;;;7.35;2.72;;;;;;;11.80;51.39;99892.53;5067760;28;20047;-71
2021/06/02 03:06:12;;;;;;;8.82;3.00;;;;;;;11.85;51.59;99890.25;5071965;28;20067;-75
2021/06/02 03:08:54;;;;;;;8.65;2.70;;;;;;;11.93;51.52;99884.97;5052750;28;20056;-74
2021/06/02 03:11:34;;;;;;;4.95;3.03;;;;;;;12.03;50.76;99890.13;5052850;28;20101;-71
2021/06/02 03:14:19;;;;;;;8.18;3.15;;;;;;;12.09;50.68;99887.66;5036268;28;20762;-70
2021/06/02 03:16:56;;;;;;;9.10;3.65;;;;;;;12.16;50.61;99894.03;5019826;28;20048;-71
2021/06/02 03:19:48;;;;;;;10.23;2.80;;;;;;;12.24;50.01;99894.03;5069530;28;20109;-70
2021/06/02 03:22:21;;;;;;;8.68;3.15;;;;;;;12.20;49.83;99867.88;5014120;28;20531;-69
2021/06/02 03:25:00;;;;;;;7.22;2.70;;;;;;;12.38;49.75;99893.41;5053009;28;20040;-73
2021/06/02 03:27:34;;;;;;;15.00;3.55;;;;;;;12.45;49.57;99894.44;5049032;28;20412;-71
2021/06/02 03:30:23;;;;;;;4.78;2.78;;;;;;;12.51;49.69;99898.25;5052708;28;20052;-75
2021/06/02 03:33:19;;;;;;;9.18;3.20;;;;;;;12.61;49.01;99894.44;5053133;28;20076;-73
2021/06/02 03:36:00;;;;;;;14.30;3.28;;;;;;;12.69;49.24;99894.44;5050528;28;20048;-74
2021/06/02 03:38:49;;;;;;;6.40;2.92;;;;;;;12.76;49.12;99892.78;5066245;28;20072;-74
2021/06/02 03:41:33;;;;;;;5.50;2.75;;;;;;;12.84;48.43;99892.78;5049061;28;20044;-75
2021/06/02 03:44:16;;;;;;;8.35;2.75;;;;;;;12.89;48.49;99894.97;5067044;28;20220;-74
2021/06/02 03:46:57;;;;;;;10.48;2.80;;;;;;;12.95;48.06;99895.13;5066558;28;20045;-74
2021/06/02 03:49:32;;;;;;;10.70;3.15;;;;;;;13.03;47.91;99902.31;5049822;28;20393;-74
2021/06/02 03:52:06;;;;;;;7.63;2.70;;;;;;;13.13;47.70;99900.34;5051489;28;20094;-74
2021/06/02 03:54:37;;;;;;;8.98;2.90;;;;;;;13.20;47.68;99912.00;5052806;28;20472;-74
2021/06/02 03:57:14;;;;;;;6.30;2.67;;;;;;;13.26;47.42;99911.31;5051937;28;20116;-73
2021/06/02 04:00:02;;;;;;;10.40;3.10;;;;;;;13.34;47.21;99924.66;5052170;28;20063;-74
2021/06/02 04:03:02;;;;;;;9.00;2.90;;;;;;;13.42;47.38;99927.31;5068972;28;20067;-74
2021/06/02 04:05:39;;;;;;;13.23;2.80;;;;;;;13.52;47.59;99928.78;5068894;28;20052;-74
2021/06/02 04:08:16;;;;;;;6.18;3.03;;;;;;;13.59;47.38;99928.97;5035401;28;20045;-75
2021/06/02 04:11:17;;;;;;;12.15;3.13;;;;;;;13.72;46.95;99925.72;5052339;28;20051;-75
2021/06/02 04:13:54;;;;;;;6.70;2.72;;;;;;;13.79;46.37;99929.41;5068894;28;20049;-75
2021/06/02 04:16:42;;;;;;;10.30;2.88;;;;;;;13.88;46.12;99933.69;5052062;28;20508;-74
2021/06/02 04:19:18;;;;;;;5.70;2.53;;;;;;;13.94;45.90;99933.00;5050581;28;20526;-74
2021/06/02 04:21:45;;;;;;;10.45;2.88;;;;;;;13.99;45.90;99942.16;5052088;28;20044;-75
2021/06/02 04:24:16;;;;;;;8.80;2.75;;;;;;;14.07;45.80;99941.31;5035122;28;20484;-75
2021/06/02 04:26:43;;;;;;;8.45;3.72;;;;;;;14.01;46.00;99915.31;5068566;28;20041;-74
2021/06/02 04:29:11;;;;;;;7.30;3.38;;;;;;;14.18;45.50;99935.56;5051889;28;20044;-75
2021/06/02 04:31:48;;;;;;;8.23;2.70;;;;;;;14.34;45.55;99943.56;5063005;28;20041;-75
2021/06/02 04:34:14;;;;;;;6.35;2.92;;;;;;;14.43;44.87;99934.50;5068426;28;20050;-75
2021/06/02 04:36:41;;;;;;;5.05;2.30;;;;;;;14.51;43.94;99945.16;5018744;28;20037;-76
2021/06/02 04:39:08;;;;;;;8.57;2.42;;;;;;;14.57;43.71;99942.63;5035125;28;20504;-75
2021/06/02 04:41:35;;;;;;;6.18;2.55;;;;;;;14.66;43.42;99951.41;5067955;28;20041;-74
2021/06/02 04:44:01;;;;;;;7.85;2.47;;;;;;;14.73;42.69;99949.72;5068444;28;20186;-73
2021/06/02 04:46:26;;;;;;;7.85;2.50;;;;;;;14.82;42.85;99945.97;5051033;28;20127;-73
2021/06/02 04:48:53;;;;;;;11.68;2.22;;;;;;;14.92;42.36;99954.56;5047375;28;20041;-71
2021/06/02 04:51:59;;;;;;;6.88;2.45;;;;;;;14.96;41.91;99938.00;5051661;28;20052;-72
2021/06/02 04:54:37;;;;;;;6.28;2.28;;;;;;;15.23;41.35;99958.84;5072947;28;20420;-74
2021/06/02 04:57:31;;;;;;;6.80;2.15;;;;;;;15.33;40.83;99960.44;5075144;28;20055;-72
2021/06/02 05:00:04;;;;;;;14.05;2.53;;;;;;;15.41;40.56;99955.88;5092499;28;20052;-71
2021/06/02 05:03:01;;;;;;;7.18;2.10;;;;;;;15.49;40.31;99971.88;5075518;28;20066;-71
2021/06/02 05:05:49;;;;;;;5.28;2.20;;;;;;;15.56;40.14;99962.09;5075187;28;20044;-72
2021/06/02 05:08:35;;;;;;;4.00;2.05;;;;;;;15.67;39.96;99968.88;5075109;28;20416;-72
2021/06/02 05:11:10;;;;;;;4.00;2.00;;;;;;;15.74;40.06;99969.78;5018396;28;20048;-72
2021/06/02 05:14:21;;;;;;;3.03;1.85;;;;;;;15.82;39.34;99973.19;5075304;28;20054;-72
2021/06/02 05:17:05;;;;;;;7.38;1.92;;;;;;;15.94;39.06;99977.13;5070741;28;20052;-72
2021/06/02 05:20:03;;;;;;;8.27;2.30;;;;;;;16.05;39.18;99978.50;5075512;28;20138;-73
2021/06/02 05:23:03;;;;;;;4.40;1.73;;;;;;;16.13;39.43;99983.78;5086288;28;20044;-73
2021/06/02 05:25:54;;;;;;;4.80;1.90;;;;;;;16.27;38.67;99988.28;5064730;28;20054;-72
2021/06/02 05:28:51;;;;;;;5.95;1.90;;;;;;;16.35;38.71;99993.53;5056663;28;20032;-73
2021/06/02 05:31:54;;;;;;;6.10;1.92;;;;;;;16.44;37.99;99990.63;5064561;28;20060;-73
2021/06/02 05:34:51;;;;;;;7.72;1.75;;;;;;;16.54;37.16;99988.47;5054136;28;20571;-73
2021/06/02 05:37:51;;;;;;;7.50;1.70;;;;;;;16.63;37.45;99987.38;5053029;28;20078;-73
2021/06/02 05:40:25;;;;;;;2.88;1.52;;;;;;;16.65;36.84;99981.81;5048069;28;20304;-73
2021/06/02 05:43:09;;;;;;;6.85;1.73;;;;;;;16.82;36.65;99988.63;5038565;28;20118;-73
2021/06/02 05:46:12;;;;;;;4.05;2.00;;;;;;;16.91;36.21;99987.47;5086747;28;20111;-72
2021/06/02 05:48:56;;;;;;;9.15;1.50;;;;;;;17.03;36.14;99991.31;5064778;28;20622;-72
2021/06/02 05:51:51;;;;;;;6.78;1.77;;;;;;;17.14;35.41;99981.91;5062736;28;20500;-72
2021/06/02 05:54:46;;;;;;;5.75;1.40;;;;;;;17.29;35.29;99982.69;5047002;28;20050;-73
2021/06/02 05:57:39;;;;;;;10.95;1.65;;;;;;;17.32;35.30;99974.25;5047692;28;20082;-72
2021/06/02 06:00:47;;;;;;;5.07;1.33;;;;;;;17.52;34.52;99986.84;5077887;28;20047;-72
2021/06/02 06:03:37;;;;;;;4.00;1.42;;;;;;;17.59;33.97;99993.09;5062389;28;20086;-73
2021/06/02 06:06:20;;;;;;;3.30;1.60;;;;;;;17.67;35.16;100000.19;5077527;28;20057;-72
2021/06/02 06:09:04;;;;;;;4.38;1.50;;;;;;;17.75;34.04;99992.81;5048555;28;20039;-73
2021/06/02 06:12:06;;;;;;;6.15;2.22;;;;;;;17.82;33.42;99999.06;5049057;28;20484;-71
2021/06/02 06:14:56;;;;;;;8.80;1.80;;;;;;;17.90;33.77;99990.88;5050862;28;20052;-73
2021/06/02 06:17:37;;;;;;;6.93;1.50;;;;;;;18.06;32.77;99989.72;5052296;28;20040;-72
2021/06/02 06:20:15;;;;;;;11.10;1.42;;;;;;;18.06;32.82;99985.19;5052316;28;20117;-73
2021/06/02 06:23:29;;;;;;;9.63;1.42;;;;;;;18.07;32.66;99986.00;5085669;28;20415;-73
2021/06/02 06:26:14;;;;;;;5.60;1.40;;;;;;;18.10;32.58;99985.59;4994185;28;20105;-73
2021/06/02 06:28:42;;;;;;;7.00;1.65;;;;;;;17.99;32.31;99975.44;5071373;28;20040;-72
2021/06/02 06:31:41;;;;;;;3.85;1.10;;;;;;;18.08;32.37;99993.06;5065963;28;20449;-73
2021/06/02 06:34:10;;;;;;;3.08;1.30;;;;;;;18.11;32.48;99987.28;5040908;28;20579;-72
2021/06/02 06:36:37;;;;;;;4.70;1.15;;;;;;;18.14;32.10;99987.69;5066459;28;20052;-73
2021/06/02 06:39:03;;;;;;;3.30;1.40;;;;;;;18.22;32.26;99987.53;5035113;28;20040;-72
2021/06/02 06:41:30;;;;;;;5.90;1.30;;;;;;;18.27;32.45;99985.09;5051439;28;20053;-72
2021/06/02 06:43:57;;;;;;;3.67;1.33;;;;;;;18.28;31.96;99978.69;5050757;28;20048;-73
2021/06/02 06:46:24;;;;;;;5.72;1.40;;;;;;;18.34;31.77;99969.00;5048327;28;20028;-73
2021/06/02 06:48:52;;;;;;;13.25;1.70;;;;;;;18.48;32.17;99984.22;5068645;28;20404;-73
2021/06/02 06:51:21;;;;;;;6.80;1.70;;;;;;;18.38;31.51;99957.69;5063354;28;20036;-74
2021/06/02 06:53:49;;;;;;;7.65;1.60;;;;;;;18.63;31.56;99986.75;5065614;28;20131;-73
2021/06/02 06:56:16;;;;;;;5.55;1.50;;;;;;;18.70;31.32;99979.53;5035223;28;20048;-73
2021/06/02 06:58:43;;;;;;;3.08;1.50;;;;;;;18.68;30.77;99962.75;5050951;28;20117;-72
2021/06/02 07:01:10;;;;;;;4.15;1.45;;;;;;;18.86;30.68;99971.94;5065170;28;20045;-73
2021/06/02 07:03:36;;;;;;;7.10;1.50;;;;;;;18.99;31.12;99982.72;5067618;28;20041;-73
2021/06/02 07:06:03;;;;;;;4.78;1.50;;;;;;;19.15;30.80;99979.66;5072038;28;20098;-72
2021/06/02 07:08:30;;;;;;;6.15;1.48;;;;;;;19.18;30.28;99955.00;5044136;28;20036;-73
2021/06/02 07:10:59;;;;;;;5.32;1.80;;;;;;;19.52;29.97;99978.25;5059959;28;20032;-73
2021/06/02 07:13:25;;;;;;;6.53;1.60;;;;;;;19.79;29.60;99972.66;5046413;28;20443;-73
2021/06/02 07:15:52;;;;;;;3.42;2.03;;;;;;;20.03;28.83;99957.69;5028453;28;20040;-72
2021/06/02 07:18:26;;;;;;;5.03;1.30;;;;;;;20.31;28.48;99970.91;5059633;28;20075;-73
2021/06/02 07:20:53;;;;;;;6.47;1.80;;;;;;;20.73;28.14;99967.63;5047290;28;20127;-72
2021/06/02 07:23:19;;;;;;;6.88;1.90;;;;;;;21.17;27.35;99951.41;5045666;28;20411;-72
2021/06/02 07:25:45;;;;;;;5.82;1.90;;;;;;;21.70;27.14;99967.00;5032731;28;20047;-73
2021/06/02 07:28:12;;;;;;;12.05;1.60;;;;;;;22.47;26.69;99962.88;5045195;28;20416;-69
2021/06/02 07:30:38;;;;;;;3.03;1.45;;;;;;;23.55;25.23;99978.06;5026444;28;20056;-70
2021/06/02 07:33:07;;;;;;;6.53;1.52;;;;;;;24.73;23.78;99970.25;5050681;28;20461;-70
2021/06/02 07:35:33;;;;;;;2.17;1.27;;;;;;;25.83;22.98;99957.81;5064996;28;20044;-69
2021/06/02 07:37:59;;;;;;;4.15;1.48;;;;;;;27.04;21.02;99949.38;5062437;28;20055;-70
2021/06/02 07:40:25;;;;;;;4.85;1.60;;;;;;;28.15;20.14;99963.97;5033950;28;20100;-71
2021/06/02 07:42:52;;;;;;;3.42;1.30;;;;;;;29.04;19.10;99954.53;5064214;28;20450;-70
2021/06/02 07:45:18;;;;;;;6.65;1.60;;;;;;;30.79;17.72;99951.63;5050491;28;20048;-70
2021/06/02 07:47:44;;;;;;;5.53;1.35;;;;;;;32.80;16.14;99949.00;5046215;28;20044;-70
2021/06/02 07:50:11;;;;;;;5.25;1.50;;;;;;;34.84;14.42;99946.56;5053151;28;20032;-69
2021/06/02 07:52:37;;;;;;;5.40;1.40;;;;;;;36.23;13.62;99946.16;5077598;28;20408;-70
2021/06/02 07:55:03;;;;;;;5.68;1.35;;;;;;;37.01;12.70;99946.09;5068804;28;20052;-70
2021/06/02 07:57:31;;;;;;;6.25;1.30;;;;;;;37.26;12.31;99950.03;5064425;28;20093;-70
2021/06/02 07:59:57;;;;;;;5.90;1.55;;;;;;;37.84;11.87;99942.03;5061099;28;20127;-71
2021/06/02 08:02:23;;;;;;;8.13;1.55;;;;;;;38.40;11.67;99938.06;5028207;28;20067;-70
2021/06/02 08:04:49;;;;;;;6.32;2.10;;;;;;;39.34;11.15;99937.44;5037070;28;20480;-70
2021/06/02 08:07:15;;;;;;;1.75;1.40;;;;;;;39.86;11.05;99928.31;5044265;28;20128;-72
2021/06/02 08:09:41;;;;;;;12.10;1.63;;;;;;;40.22;10.57;99933.13;5029054;28;20135;-71
2021/06/02 08:12:10;;;;;;;6.20;1.55;;;;;;;40.83;10.55;99928.38;5036721;28;20040;-71
2021/06/02 08:14:36;;;;;;;4.10;1.40;;;;;;;41.63;10.40;99921.63;5079497;28;20048;-71
2021/06/02 08:17:04;;;;;;;5.85;1.02;;;;;;;42.31;9.25;99937.06;5030123;28;20052;-72
2021/06/02 08:19:31;;;;;;;5.07;1.20;;;;;;;42.84;9.09;99921.59;5026795;28;20408;-71
2021/06/02 08:21:57;;;;;;;6.82;1.42;;;;;;;43.39;8.73;99925.97;5034855;28;20048;-71
2021/06/02 08:24:23;;;;;;;6.55;1.45;;;;;;;42.95;9.15;99929.03;5045440;28;20630;-72
2021/06/02 08:26:49;;;;;;;6.13;1.80;;;;;;;43.44;8.70;99923.72;5045309;28;20044;-71
2021/06/02 08:29:15;;;;;;;3.10;1.50;;;;;;;43.83;8.62;99916.06;5021060;28;20068;-72
2021/06/02 08:31:41;;;;;;;5.47;1.40;;;;;;;44.65;8.38;99917.13;5055749;28;20060;-70
2021/06/02 08:34:07;;;;;;;10.25;1.48;;;;;;;45.61;8.06;99920.81;5022671;28;20117;-72
2021/06/02 08:36:34;;;;;;;13.73;1.55;;;;;;;46.72;7.57;99924.28;5022537;28;20500;-71
2021/06/02 08:38:59;;;;;;;8.30;1.17;;;;;;;45.91;7.72;99906.72;5072132;28;20040;-71
2021/06/02 08:41:25;;;;;;;7.70;1.30;;;;;;;45.60;8.00;99904.34;5037720;28;20044;-74
2021/06/02 08:43:51;;;;;;;6.88;1.30;;;;;;;45.61;7.66;99903.19;5038508;28;20048;-72
2021/06/02 08:46:19;;;;;;;6.10;1.52;;;;;;;44.78;8.38;99898.09;5058385;28;20094;-73
2021/06/02 08:48:48;;;;;;;10.27;2.63;;;;;;;44.72;8.02;99897.59;5031128;28;20058;-70
2021/06/02 08:51:16;;;;;;;6.55;1.77;;;;;;;45.38;7.82;99894.06;5073771;28;20052;-72
2021/06/02 08:53:42;;;;;;;11.10;1.58;;;;;;;43.92;8.25;99883.09;5070274;28;20040;-72
2021/06/02 08:56:08;;;;;;;14.32;2.00;;;;;;;42.33;9.35;99887.25;5034421;28;20049;-71
2021/06/02 08:58:39;;;;;;;3.25;1.42;;;;;;;40.91;9.96;99883.66;5070728;28;20113;-71
2021/06/02 09:01:09;;;;;;;9.13;1.95;;;;;;;41.94;9.45;99888.22;5040529;28;20040;-69
2021/06/02 09:03:36;;;;;;;8.05;2.08;;;;;;;43.05;9.10;99883.72;5062716;28;20041;-71
2021/06/02 09:06:07;;;;;;;13.43;1.88;;;;;;;42.43;9.60;99881.09;5063799;28;20048;-71
2021/06/02 09:08:33;;;;;;;15.73;2.53;;;;;;;40.07;10.39;99864.22;5053029;28;20046;-70
2021/06/02 09:11:13;;;;;;;9.48;1.80;;;;;;;39.77;10.23;99873.91;5054198;28;20126;-71
2021/06/02 09:13:39;;;;;;;8.05;1.88;;;;;;;40.14;10.63;99870.03;5063227;28;20036;-70
2021/06/02 09:16:23;;;;;;;8.85;2.00;;;;;;;41.17;9.85;99863.72;5038097;28;20051;-70
2021/06/02 09:19:09;;;;;;;3.97;1.30;;;;;;;42.77;9.09;99887.88;5065243;28;20552;-70
2021/06/02 09:21:38;;;;;;;6.03;1.10;;;;;;;43.64;8.29;99869.34;5082009;28;20036;-69
2021/06/02 09:24:05;;;;;;;3.15;1.20;;;;;;;44.57;8.17;99876.94;5065845;28;20131;-71
2021/06/02 09:26:31;;;;;;;8.32;2.03;;;;;;;45.45;7.82;99872.53;5079560;28;20185;-70
2021/06/02 09:29:09;;;;;;;3.03;1.20;;;;;;;45.92;7.78;99867.00;5072165;28;20050;-70
2021/06/02 09:31:40;;;;;;;5.60;1.40;;;;;;;46.04;7.62;99860.28;5079294;28;20059;-71
2021/06/02 09:34:06;;;;;;;7.55;1.10;;;;;;;45.85;7.26;99832.44;5048171;28;20040;-70
2021/06/02 09:36:34;;;;;;;6.90;1.40;;;;;;;45.84;7.72;99867.34;5079349;28;20067;-71
2021/06/02 09:39:05;;;;;;;4.80;1.40;;;;;;;45.27;7.36;99837.81;5067638;28;20040;-71
2021/06/02 09:41:38;;;;;;;5.75;1.13;;;;;;;45.22;7.40;99859.81;5070069;28;20079;-71
2021/06/02 09:44:24;;;;;;;8.18;1.42;;;;;;;45.37;7.33;99867.19;5037254;28;20036;-70
2021/06/02 09:47:04;;;;;;;10.52;1.67;;;;;;;44.64;7.97;99857.44;5072201;28;20051;-70
2021/06/02 09:49:51;;;;;;;7.40;1.52;;;;;;;43.40;7.96;99850.06;5070714;28;20135;-70
2021/06/02 09:52:18;;;;;;;3.80;1.33;;;;;;;43.44;8.21;99848.16;5071812;28;20068;-70
2021/06/02 09:54:45;;;;;;;6.95;1.50;;;;;;;43.87;8.64;99863.75;5053909;28;20044;-71
2021/06/02 09:57:15;;;;;;;4.30;1.20;;;;;;;44.40;8.15;99851.47;5054372;28;20041;-70
2021/06/02 09:59:57;;;;;;;6.38;1.20;;;;;;;43.53;8.14;99837.56;5037470;28;20044;-70
2021/06/02 10:02:24;;;;;;;1.55;1.33;;;;;;;44.09;8.33;99841.34;5037445;28;20531;-70
2021/06/02 10:05:04;;;;;;;6.20;1.35;;;;;;;43.54;8.51;99844.78;5053296;28;20036;-71
2021/06/02 10:07:31;;;;;;;3.53;1.52;;;;;;;42.00;9.33;99847.69;5070456;28;20519;-70
2021/06/02 10:10:26;;;;;;;5.88;1.15;;;;;;;39.50;10.36;99841.19;5037350;28;20040;-71
2021/06/02 10:13:04;;;;;;;4.20;1.52;;;;;;;37.33;11.54;99847.03;5030539;28;20044;-70
2021/06/02 10:15:39;;;;;;;4.85;1.50;;;;;;;35.50;12.91;99835.34;5071573;28;20045;-70
2021/06/02 10:18:22;;;;;;;5.57;1.20;;;;;;;34.04;13.69;99840.66;5071579;28;20052;-70
2021/06/02 10:21:09;;;;;;;5.88;1.50;;;;;;;33.54;14.35;99842.41;5070144;28;20440;-70
2021/06/02 10:23:40;;;;;;;6.40;1.25;;;;;;;32.69;14.74;99841.84;5053087;28;20409;-70
2021/06/02 10:26:08;;;;;;;4.22;1.70;;;;;;;31.74;15.42;99834.78;5070309;28;20048;-70
2021/06/02 10:28:34;;;;;;;5.43;1.60;;;;;;;33.09;14.55;99837.66;5036853;28;20466;-70
2021/06/02 10:31:02;;;;;;;6.15;1.70;;;;;;;34.99;13.40;99827.53;5020011;28;20473;-71
2021/06/02 10:33:31;;;;;;;3.13;1.10;;;;;;;34.97;13.20;99837.22;5052837;28;20434;-71
2021/06/02 10:35:59;;;;;;;3.75;1.25;;;;;;;34.60;13.34;99838.34;5053153;28;20525;-72
2021/06/02 10:38:26;;;;;;;3.67;1.38;;;;;;;35.55;12.81;99838.00;5053583;28;20091;-69
2021/06/02 10:40:52;;;;;;;3.33;1.17;;;;;;;34.83;13.43;99833.69;5070246;28;20110;-70
2021/06/02 10:43:27;;;;;;;2.85;1.30;;;;;;;34.64;13.49;99828.34;5052861;28;20466;-70
2021/06/02 10:46:06;;;;;;;3.33;1.23;;;;;;;34.59;13.66;99822.09;5020401;28;20040;-70
2021/06/02 10:49:01;;;;;;;3.55;1.30;;;;;;;33.09;14.44;99829.41;5070060;28;20048;-70
2021/06/02 10:51:29;;;;;;;6.15;1.20;;;;;;;31.29;16.14;99813.28;5068734;28;20048;-70
2021/06/02 10:54:08;;;;;;;7.68;1.50;;;;;;;29.84;17.59;99833.28;5036515;28;20062;-70
2021/06/02 10:56:35;;;;;;;11.85;2.00;;;;;;;29.03;18.39;99832.53;5069792;28;20079;-69
2021/06/02 10:59:02;;;;;;;8.90;2.17;;;;;;;28.24;19.07;99806.66;5053040;28;20131;-69
2021/06/02 11:01:31;;;;;;;5.32;1.80;;;;;;;28.72;18.49;99819.94;5075738;28;20051;-71
2021/06/02 11:04:06;;;;;;;3.03;1.83;;;;;;;28.65;18.55;99817.44;5047165;28;20040;-70
2021/06/02 11:06:40;;;;;;;5.63;1.60;;;;;;;28.50;18.33;99828.34;5064365;28;20037;-69
2021/06/02 11:09:06;;;;;;;8.05;1.80;;;;;;;28.11;19.31;99827.09;5079998;28;20059;-70
2021/06/02 11:11:35;;;;;;;9.55;2.30;;;;;;;27.73;19.55;99824.72;5082815;28;20039;-70
2021/06/02 11:14:18;;;;;;;2.70;1.45;;;;;;;27.37;20.05;99814.69;5073195;28;20044;-76
2021/06/02 11:16:45;;;;;;;3.65;1.70;;;;;;;27.17;20.63;99831.66;5056188;28;20047;-79
2021/06/02 11:19:11;;;;;;;3.25;1.50;;;;;;;27.02;21.02;99838.91;5073058;28;20052;-77
2021/06/02 11:21:56;;;;;;;8.38;1.80;;;;;;;26.91;21.15;99839.91;5056002;28;20411;-76
2021/06/02 11:24:31;;;;;;;5.85;1.50;;;;;;;26.60;21.63;99837.94;5056203;28;20044;-73
2021/06/02 11:27:27;;;;;;;1.85;1.17;;;;;;;26.37;20.45;99826.25;5073040;28;20051;-76
2021/06/02 11:29:55;;;;;;;2.85;1.70;;;;;;;26.27;20.33;99831.59;5056191;28;20412;-71
2021/06/02 11:32:29;;;;;;;5.65;1.20;;;;;;;26.23;21.13;99822.25;5056087;28;20117;-71
2021/06/02 11:34:59;;;;;;;9.05;1.67;;;;;;;26.03;21.67;99827.47;5073122;28;20138;-70
2021/06/02 11:37:27;;;;;;;5.05;1.30;;;;;;;25.89;22.73;99820.72;5070357;28;20454;-71
2021/06/02 11:39:58;;;;;;;9.30;1.80;;;;;;;25.61;22.17;99822.78;5052748;28;20063;-70
2021/06/02 11:42:29;;;;;;;;;;;;;;;25.29;22.82;99827.19;5020185;28;20042;-71
2021/06/02 11:45:06;;;;;;;4.45;1.63;;;;;;;24.79;23.39;99829.88;5036095;28;20023;-71
2021/06/02 11:47:32;;;;;;;3.13;1.60;;;;;;;24.39;24.05;99832.66;5068683;28;20047;-70
2021/06/02 11:50:09;;;;;;;10.68;1.75;;;;;;;24.10;25.34;99838.28;5035564;28;20090;-72
2021/06/02 11:52:35;;;;;;;6.60;1.50;;;;;;;23.93;25.55;99835.47;5068938;28;20549;-74
2021/06/02 11:55:09;;;;;;;10.25;1.70;;;;;;;23.87;25.68;99833.72;5061322;28;20048;-72
2021/06/02 11:57:40;;;;;;;5.60;1.70;;;;;;;23.98;25.55;99835.63;5077574;28;20522;-71
2021/06/02 12:00:15;;;;;;;6.32;2.10;;;;;;;24.17;25.39;99822.72;5029380;28;20041;-71
2021/06/02 12:02:42;;;;;;;27.48;16.13;;;;;;;24.18;25.41;99786.34;5034010;28;20036;-74
2021/06/02 12:05:14;;;;;;;5.97;1.70;;;;;;;24.62;25.10;99840.69;5029386;28;20044;-71
2021/06/02 12:07:48;;;;;;;5.65;1.65;;;;;;;24.65;24.61;99828.50;5050685;28;20046;-73
2021/06/02 12:10:15;;;;;;;4.78;1.83;;;;;;;24.69;24.88;99835.16;5078771;28;20040;-71
2021/06/02 12:12:43;;;;;;;9.30;1.73;;;;;;;24.72;25.05;99835.47;5027600;28;20047;-74